Time;durP1;ratioP1;P1;durP2;ratioP2;P2;SDS_P1;SDS_P2;PMS_P1;PMS_P2;Temp;Humidity;BMP_temperature;BMP_pressure;BME280_temperature;BME280_humidity;BME280_pressure;Samples;Min_cycle;Max_cycle;Signal;HPM_P1;HPM_P2
2021/03/16 00:00:28;;;;;;;;;70.80;53.80;;;;;8.35;43.89;97937.84;6254650;27;126145;-57
2021/03/16 00:03:50;;;;;;;;;67.00;52.00;;;;;8.39;43.39;97939.00;6256080;27;126517;-57
2021/03/16 00:07:17;;;;;;;;;69.00;53.00;;;;;8.42;43.34;97939.34;6246385;27;123812;-57
2021/03/16 00:10:19;;;;;;;;;68.25;54.00;;;;;8.41;43.55;97944.94;6253054;27;126913;-57
2021/03/16 00:13:20;;;;;;;;;75.00;60.00;;;;;8.36;43.46;97950.19;6254361;27;125270;-57
2021/03/16 00:16:23;;;;;;;;;71.00;55.00;;;;;8.33;43.53;97942.59;6255103;27;127494;-57
2021/03/16 00:19:24;;;;;;;;;72.20;59.00;;;;;8.35;43.88;97946.72;6254924;27;125087;-57
2021/03/16 00:22:26;;;;;;;;;73.40;60.00;;;;;8.32;43.66;97949.84;6255990;27;126139;-57
2021/03/16 00:25:45;;;;;;;;;71.75;58.75;;;;;8.29;43.78;97947.59;6254499;27;126118;-57
2021/03/16 00:28:47;;;;;;;;;74.80;61.20;;;;;8.30;43.84;97943.91;6255687;27;125086;-57
2021/03/16 00:31:48;;;;;;;;;76.00;61.00;;;;;8.35;43.70;97945.88;6255960;27;126743;-57
2021/03/16 00:34:50;;;;;;;;;78.00;67.00;;;;;8.33;43.48;97953.34;6255678;27;125335;-57
2021/03/16 00:37:53;;;;;;;;;75.40;61.00;;;;;7.82;43.50;97883.03;6254065;27;124652;-57
2021/03/16 00:40:55;;;;;;;;;71.40;53.40;;;;;8.18;43.02;97946.50;6254788;27;125229;-57
2021/03/16 00:43:56;;;;;;;;;71.20;55.40;;;;;8.06;42.93;97958.25;6260907;27;125048;-57
2021/03/16 00:46:57;;;;;;;;;69.00;53.00;;;;;7.98;43.10;97947.84;6264393;27;127500;-57
2021/03/16 00:50:02;;;;;;;;;72.00;59.00;;;;;7.93;43.68;97953.06;6263452;27;126046;-57
2021/03/16 00:53:04;;;;;;;;;76.80;62.80;;;;;7.94;44.23;97962.75;6262498;27;124772;-57
2021/03/16 00:56:13;;;;;;;;;77.50;64.00;;;;;8.00;44.34;97953.81;6245932;27;124778;-57
2021/03/16 00:59:14;;;;;;;;;77.00;66.00;;;;;8.05;44.32;97952.06;6263878;27;128469;-57
2021/03/16 01:02:18;;;;;;;;;76.00;65.00;;;;;8.12;44.13;97960.84;6263374;27;125506;-57
2021/03/16 01:05:20;;;;;;;;;75.20;65.00;;;;;8.11;44.35;97956.50;6261653;27;125773;-57
2021/03/16 01:08:21;;;;;;;;;75.40;65.80;;;;;8.12;44.03;97960.84;6262288;27;128232;-57
2021/03/16 01:11:23;;;;;;;;;77.50;66.50;;;;;8.16;43.99;97958.53;6263798;27;126962;-57
2021/03/16 01:14:25;;;;;;;;;76.60;64.00;;;;;8.16;43.76;97955.84;6262634;27;125201;-57
2021/03/16 01:17:26;;;;;;;;;81.20;69.00;;;;;8.09;43.81;97941.69;6261667;27;125011;-57
2021/03/16 01:20:28;;;;;;;;;78.40;66.20;;;;;7.95;43.54;97940.25;6226582;27;124775;-57
2021/03/16 01:23:29;;;;;;;;;77.00;66.75;;;;;8.04;43.77;97946.94;6262485;27;124245;-57
2021/03/16 01:26:37;;;;;;;;;75.75;61.75;;;;;7.98;43.44;97942.47;6263208;27;125858;-57
2021/03/16 01:29:38;;;;;;;;;75.40;63.80;;;;;7.87;43.52;97944.06;6262650;27;125551;-57
2021/03/16 01:32:40;;;;;;;;;76.75;64.75;;;;;7.83;43.58;97946.38;6261904;27;126428;-57
2021/03/16 01:35:42;;;;;;;;;76.50;63.50;;;;;7.81;43.93;97945.81;6262228;27;127065;-57
2021/03/16 01:38:43;;;;;;;;;76.80;65.00;;;;;7.84;44.06;97942.66;6259224;27;126310;-57
2021/03/16 01:41:45;;;;;;;;;78.00;65.00;;;;;7.88;43.84;97945.69;6261517;27;126260;-57
2021/03/16 01:44:47;;;;;;;;;78.00;65.20;;;;;7.91;43.68;97939.06;6261770;27;127625;-57
2021/03/16 01:47:50;;;;;;;;;77.00;65.80;;;;;7.64;43.56;97912.59;6261185;27;126698;-57
2021/03/16 01:50:52;;;;;;;;;78.00;67.40;;;;;7.84;43.46;97936.47;6261639;27;126125;-57
2021/03/16 01:53:54;;;;;;;;;77.00;67.40;;;;;7.55;43.47;97905.91;6260906;27;125826;-57
2021/03/16 01:57:02;;;;;;;;;76.20;64.80;;;;;7.73;43.53;97932.69;6258455;27;125920;-57
2021/03/16 02:00:41;;;;;;;;;77.25;65.00;;;;;7.63;43.86;97932.41;6257237;27;126841;-57
2021/03/16 02:04:02;;;;;;;;;78.00;68.60;;;;;7.74;43.40;97936.19;6258655;27;124660;-57
2021/03/16 02:07:28;;;;;;;;;77.20;67.00;;;;;7.75;43.93;97940.50;6256010;27;125438;-57
2021/03/16 02:10:51;;;;;;;;;76.00;65.60;;;;;7.72;43.93;97944.44;6257395;27;127070;-57
2021/03/16 02:14:27;;;;;;;;;76.80;67.80;;;;;7.55;44.19;97916.63;6258370;27;127002;-57
2021/03/16 02:17:52;;;;;;;;;78.00;68.00;;;;;7.72;44.22;97947.13;6258972;27;125028;-57
2021/03/16 02:21:17;;;;;;;;;77.00;64.67;;;;;7.77;44.07;97959.91;6256834;27;125974;-57
2021/03/16 02:24:52;;;;;;;;;78.40;63.80;;;;;7.74;44.15;97942.38;6258322;27;125880;-57
2021/03/16 02:28:31;;;;;;;;;73.75;61.75;;;;;7.79;44.17;97945.19;6256854;27;126960;-57
2021/03/16 02:31:56;;;;;;;;;75.33;60.33;;;;;7.87;44.10;97949.41;6257890;27;125765;-57
2021/03/16 02:35:18;;;;;;;;;77.00;61.50;;;;;7.86;44.26;97958.53;6257679;27;124830;-57
2021/03/16 02:38:44;;;;;;;;;76.00;63.00;;;;;7.88;44.04;97955.59;6257456;27;124450;-57
2021/03/16 02:42:06;;;;;;;;;75.80;59.80;;;;;7.84;44.22;97956.06;6257830;27;124630;-57
2021/03/16 02:45:26;;;;;;;;;74.20;59.40;;;;;7.86;44.20;97958.53;6257760;27;125932;-57
2021/03/16 02:48:47;;;;;;;;;73.40;61.20;;;;;7.82;44.18;97957.31;6257012;27;126088;-57
2021/03/16 02:52:08;;;;;;;;;75.20;59.20;;;;;7.77;44.28;97959.91;6255405;27;123850;-57
2021/03/16 02:55:29;;;;;;;;;75.80;64.00;;;;;7.58;44.31;97966.31;6256053;27;123878;-57
2021/03/16 02:58:53;;;;;;;;;77.50;66.25;;;;;7.44;44.36;97968.31;6256530;27;126002;-57
2021/03/16 03:02:14;;;;;;;;;78.00;67.00;;;;;7.23;44.46;97950.03;6255170;27;125891;-57
2021/03/16 03:05:37;;;;;;;;;76.00;65.00;;;;;7.34;44.58;97971.53;6255638;27;123548;-57
2021/03/16 03:08:57;;;;;;;;;75.20;63.60;;;;;7.24;44.82;97976.59;6255222;27;125596;-57
2021/03/16 03:12:17;;;;;;;;;75.00;64.00;;;;;7.17;45.27;97973.19;6255653;27;126318;-57
2021/03/16 03:15:38;;;;;;;;;76.00;63.40;;;;;7.08;45.64;97977.19;6255943;27;125966;-57
2021/03/16 03:18:58;;;;;;;;;76.00;65.00;;;;;7.05;45.74;97972.25;6254992;27;126568;-57
2021/03/16 03:22:37;;;;;;;;;80.00;67.00;;;;;7.03;45.95;97977.03;6232139;27;125787;-57
2021/03/16 03:26:13;;;;;;;;;79.40;69.00;;;;;7.10;45.90;97979.63;6257093;27;127017;-57
2021/03/16 03:29:34;;;;;;;;;80.60;72.60;;;;;7.11;46.06;97983.94;6256327;27;124600;-57
2021/03/16 03:33:01;;;;;;;;;79.00;69.60;;;;;7.08;46.33;97984.41;6245070;27;124592;-57
2021/03/16 03:36:23;;;;;;;;;79.00;69.60;;;;;7.12;46.03;97982.91;6256861;27;124669;-57
2021/03/16 03:39:44;;;;;;;;;81.00;71.80;;;;;7.12;46.05;97975.69;6256879;27;125982;-57
2021/03/16 03:43:10;;;;;;;;;78.00;68.00;;;;;7.10;46.30;97988.50;6256568;27;125257;-57
2021/03/16 03:46:33;;;;;;;;;78.00;67.33;;;;;7.09;46.47;97975.31;6255490;27;126681;-57
2021/03/16 03:49:55;;;;;;;;;78.00;69.00;;;;;7.10;46.58;97983.13;6256210;27;124882;-57
2021/03/16 03:53:16;;;;;;;;;77.40;66.40;;;;;7.15;46.58;97980.59;6254622;27;125941;-57
2021/03/16 03:56:37;;;;;;;;;75.40;62.60;;;;;7.02;46.14;97943.22;6256192;27;123792;-57
2021/03/16 03:59:58;;;;;;;;;79.67;65.00;;;;;7.28;46.11;97985.03;6255923;27;125427;-57
2021/03/16 04:03:18;;;;;;;;;75.00;64.00;;;;;7.29;46.10;97986.66;6255572;27;126612;-57
2021/03/16 04:06:38;;;;;;;;;75.20;63.20;;;;;7.32;45.94;97991.56;6256938;27;126817;-57
2021/03/16 04:09:59;;;;;;;;;76.60;65.00;;;;;7.29;45.84;97997.38;6256275;27;125825;-57
2021/03/16 04:13:20;;;;;;;;;73.20;61.80;;;;;7.26;46.03;98000.50;6255852;27;124684;-57
2021/03/16 04:16:40;;;;;;;;;73.00;59.80;;;;;7.21;45.98;97990.44;6255862;27;125811;-57
2021/03/16 04:20:02;;;;;;;;;75.25;59.25;;;;;7.01;46.49;97981.78;6256490;27;127033;-57
2021/03/16 04:23:23;;;;;;;;;71.60;57.20;;;;;6.87;46.42;97975.72;6236933;27;122257;-57
2021/03/16 04:26:42;;;;;;;;;70.00;57.00;;;;;7.13;46.03;98006.00;6253391;27;126265;-57
2021/03/16 04:30:06;;;;;;;;;70.75;57.75;;;;;7.12;46.13;98009.72;6255525;27;125873;-57
2021/03/16 04:33:26;;;;;;;;;73.20;60.80;;;;;7.03;46.29;98016.41;6255446;27;124671;-57
2021/03/16 04:36:46;;;;;;;;;73.00;59.60;;;;;7.08;46.28;98014.72;6254487;27;124713;-57
2021/03/16 04:40:07;;;;;;;;;72.60;60.60;;;;;7.02;46.22;98012.09;6254192;27;125854;-57
2021/03/16 04:43:27;;;;;;;;;72.00;59.00;;;;;7.11;46.22;98048.28;6253366;27;126505;-57
2021/03/16 04:46:47;;;;;;;;;71.20;56.40;;;;;7.06;46.23;98018.63;6248875;27;128114;-57
2021/03/16 04:50:08;;;;;;;;;71.00;57.20;;;;;6.73;46.40;97974.22;6249844;27;123108;-57
2021/03/16 04:53:28;;;;;;;;;71.80;59.00;;;;;7.17;46.11;98013.38;6249340;27;126515;-57
2021/03/16 04:56:48;;;;;;;;;70.20;57.00;;;;;7.21;46.19;98021.78;6254202;27;127156;-57
2021/03/16 05:00:09;;;;;;;;;70.00;54.00;;;;;7.21;45.98;98017.25;6235570;27;125960;-57
2021/03/16 05:03:30;;;;;;;;;72.80;57.40;;;;;7.25;45.87;98023.81;6252924;27;126047;-57
2021/03/16 05:06:51;;;;;;;;;68.25;55.00;;;;;7.23;45.93;98020.50;6254395;27;124622;-57
2021/03/16 05:10:11;;;;;;;;;70.00;53.00;;;;;7.31;45.66;98024.78;6252061;27;126536;-57
2021/03/16 05:13:31;;;;;;;;;70.00;55.00;;;;;7.27;45.57;98023.59;6253991;27;126007;-57
2021/03/16 05:16:52;;;;;;;;;68.60;53.60;;;;;7.29;45.61;98029.53;6253563;27;124508;-57
2021/03/16 05:20:12;;;;;;;;;71.20;57.00;;;;;7.29;45.59;98032.22;6252042;27;124428;-57
2021/03/16 05:23:32;;;;;;;;;67.00;53.00;;;;;7.34;45.27;98038.56;6254431;27;125201;-57
2021/03/16 05:26:52;;;;;;;;;66.60;52.60;;;;;7.31;45.29;98035.50;6254706;27;124829;-57
2021/03/16 05:30:13;;;;;;;;;68.80;52.20;;;;;7.39;45.04;98045.94;6256204;27;125862;-57
2021/03/16 05:33:33;;;;;;;;;68.40;52.80;;;;;7.18;45.23;98035.66;6256582;27;126308;-57
2021/03/16 05:36:53;;;;;;;;;70.00;54.50;;;;;7.51;44.92;98048.72;6256576;27;126731;-57
2021/03/16 05:40:13;;;;;;;;;70.00;53.40;;;;;7.28;44.82;98004.59;6256644;27;125810;-57
2021/03/16 05:43:34;;;;;;;;;69.50;53.50;;;;;7.67;44.63;98050.81;6257863;27;126009;-57
2021/03/16 05:46:54;;;;;;;;;70.00;55.00;;;;;7.74;44.47;98065.78;6259580;27;127065;-57
2021/03/16 05:50:16;;;;;;;;;70.80;55.80;;;;;7.79;44.42;98054.38;6258916;27;125216;-57
2021/03/16 05:53:36;;;;;;;;;72.00;57.80;;;;;7.90;44.17;98066.22;6259556;27;125092;-57
2021/03/16 05:56:57;;;;;;;;;72.00;58.00;;;;;7.60;43.97;98025.91;6258511;27;125878;-57
2021/03/16 06:00:18;;;;;;;;;73.00;61.25;;;;;7.96;43.98;98068.84;6254535;27;127062;-57
2021/03/16 06:03:38;;;;;;;;;72.00;59.00;;;;;8.02;43.84;98067.09;6257215;27;125955;-57
2021/03/16 06:06:58;;;;;;;;;75.00;61.40;;;;;8.00;43.81;98079.94;6258323;27;125454;-57
2021/03/16 06:10:21;;;;;;;;;77.80;64.00;;;;;8.07;43.90;98081.50;6258147;27;124862;-57
2021/03/16 06:13:53;;;;;;;;;75.00;63.00;;;;;8.14;43.70;98076.88;6257188;27;124510;-58
2021/03/16 06:17:15;;;;;;;;;84.00;69.40;;;;;8.31;43.41;98084.34;6254937;27;125743;-58
2021/03/16 06:20:36;;;;;;;;;77.60;66.60;;;;;8.44;43.34;98076.94;6255523;27;124599;-58
2021/03/16 06:23:58;;;;;;;;;77.40;68.00;;;;;8.58;43.17;98083.75;6255524;27;125715;-58
2021/03/16 06:27:25;;;;;;;;;80.80;72.60;;;;;8.67;42.79;98086.94;6255472;27;127417;-58
2021/03/16 06:30:49;;;;;;;;;79.00;68.60;;;;;8.56;42.67;98044.72;6255770;27;123782;-58
2021/03/16 06:34:23;;;;;;;;;79.00;68.00;;;;;9.05;42.37;98094.63;6256863;27;127059;-58
2021/03/16 06:38:04;;;;;;;;;78.40;70.40;;;;;9.34;41.70;98099.09;6251281;27;125995;-58
2021/03/16 06:41:25;;;;;;;;;76.40;66.20;;;;;9.57;41.28;98138.66;6253902;27;124007;-58
2021/03/16 06:44:45;;;;;;;;;76.00;64.20;;;;;9.68;40.86;98108.22;6254297;27;124907;-58
2021/03/16 06:48:22;;;;;;;;;75.60;65.60;;;;;9.98;40.49;98116.16;6255210;27;126044;-58
2021/03/16 06:51:44;;;;;;;;;75.50;62.25;;;;;10.27;39.79;98104.41;6255551;27;127671;-58
2021/03/16 06:55:14;;;;;;;;;76.00;64.00;;;;;10.79;38.74;98124.06;6255363;27;124760;-58
2021/03/16 06:58:35;;;;;;;;;73.40;60.40;;;;;11.28;37.97;98125.19;6240837;27;127318;-58
2021/03/16 07:01:56;;;;;;;;;70.20;57.00;;;;;11.31;37.35;98078.00;6254135;27;127274;-57
2021/03/16 07:05:29;;;;;;;;;71.80;58.20;;;;;12.48;35.82;98129.06;6254754;27;124838;-57
2021/03/16 07:08:50;;;;;;;;;71.40;57.40;;;;;13.73;33.66;98123.25;6252887;27;124870;-57
2021/03/16 07:12:12;;;;;;;;;69.60;57.00;;;;;14.55;32.09;98076.56;6254964;27;124573;-58
2021/03/16 07:15:33;;;;;;;;;71.00;56.00;;;;;15.20;31.45;98132.03;6254623;27;127249;-58
2021/03/16 07:18:54;;;;;;;;;72.00;57.00;;;;;15.59;30.93;98132.34;6253750;27;126189;-58
2021/03/16 07:22:20;;;;;;;;;71.75;56.25;;;;;16.54;29.73;98122.34;6252490;27;126731;-58
2021/03/16 07:25:42;;;;;;;;;72.60;59.00;;;;;17.08;28.66;98127.81;6253429;27;124449;-58
2021/03/16 07:29:05;;;;;;;;;72.00;59.40;;;;;18.04;27.48;98128.97;6238319;27;126056;-58
2021/03/16 07:32:26;;;;;;;;;74.00;61.00;;;;;18.93;26.63;98130.94;6252413;27;125950;-58
2021/03/16 07:35:48;;;;;;;;;75.60;60.60;;;;;19.38;25.79;98140.41;6253350;27;126679;-58
2021/03/16 07:39:11;;;;;;;;;76.60;63.40;;;;;19.86;25.33;98145.66;6254516;27;126049;-58
2021/03/16 07:42:31;;;;;;;;;75.60;63.60;;;;;20.16;24.84;98152.53;6253239;27;125947;-58
2021/03/16 07:45:51;;;;;;;;;77.40;65.80;;;;;20.65;24.51;98149.97;6253895;27;126012;-58
2021/03/16 07:49:15;;;;;;;;;77.60;65.60;;;;;20.46;24.59;98153.91;6253654;27;124804;-57
2021/03/16 07:52:46;;;;;;;;;78.00;67.50;;;;;19.77;24.91;98163.88;6250204;27;126080;-59
2021/03/16 07:56:08;;;;;;;;;79.40;68.80;;;;;18.94;26.17;98156.34;6247689;27;124581;-58
2021/03/16 07:59:36;;;;;;;;;78.80;69.20;;;;;18.01;27.40;98167.72;6248620;27;125506;-59
2021/03/16 08:02:57;;;;;;;;;80.00;71.75;;;;;17.40;28.30;98165.47;6249746;27;124553;-59
2021/03/16 08:06:21;;;;;;;;;85.00;75.00;;;;;16.71;29.22;98144.63;6238465;27;125988;-58
2021/03/16 08:09:46;;;;;;;;;80.25;73.00;;;;;16.29;30.47;98161.34;6238360;27;125955;-58
2021/03/16 08:13:12;;;;;;;;;85.75;76.00;;;;;15.99;31.23;98164.94;6238625;27;126083;-58
2021/03/16 08:16:43;;;;;;;;;83.25;74.25;;;;;15.89;31.53;98166.84;6236898;27;124833;-59
2021/03/16 08:20:05;;;;;;;;;89.60;76.40;;;;;15.38;32.37;98163.28;6226618;27;124809;-58
2021/03/16 08:23:31;;;;;;;;;92.20;81.80;;;;;15.29;32.83;98178.50;6234737;27;124162;-59
2021/03/16 08:26:55;;;;;;;;;92.00;80.80;;;;;14.84;33.09;98133.88;6234506;27;125937;-59
2021/03/16 08:30:18;;;;;;;;;98.00;81.50;;;;;14.98;33.43;98177.59;6237574;27;125981;-58
2021/03/16 08:33:39;;;;;;;;;94.20;80.80;;;;;14.84;34.21;98179.19;6240451;27;127728;-59
2021/03/16 08:36:59;;;;;;;;;95.00;85.00;;;;;14.31;34.66;98146.66;6242263;27;127901;-59
2021/03/16 08:40:21;;;;;;;;;90.40;81.00;;;;;13.80;35.23;98115.72;6238320;27;124775;-59
2021/03/16 08:43:51;;;;;;;;;87.60;76.60;;;;;13.93;35.86;98182.19;6241975;27;126031;-59
2021/03/16 08:47:13;;;;;;;;;85.40;77.00;;;;;13.64;36.64;98176.28;6240615;27;125943;-59
2021/03/16 08:50:33;;;;;;;;;88.50;77.00;;;;;13.56;37.16;98182.19;6244362;27;125386;-59
2021/03/16 08:53:53;;;;;;;;;84.20;73.00;;;;;13.29;37.47;98160.53;6237740;27;125400;-59
2021/03/16 08:57:21;;;;;;;;;79.00;67.00;;;;;13.57;37.53;98186.53;6221491;27;125896;-58
2021/03/16 09:00:42;;;;;;;;;80.25;70.50;;;;;14.04;36.79;98185.78;6235978;27;124806;-59
2021/03/16 09:04:11;;;;;;;;;81.80;68.00;;;;;13.92;36.69;98183.28;6229731;27;125325;-60
2021/03/16 09:07:33;;;;;;;;;82.20;67.60;;;;;14.08;36.54;98186.88;6231868;28;124749;-59
2021/03/16 09:10:54;;;;;;;;;77.00;66.00;;;;;13.93;36.72;98193.03;6220588;28;125910;-59
2021/03/16 09:14:16;;;;;;;;;81.00;69.00;;;;;13.77;36.89;98192.13;6226563;28;124825;-59
2021/03/16 09:17:37;;;;;;;;;78.20;68.80;;;;;13.65;37.19;98220.44;6225547;28;126525;-58
2021/03/16 09:21:04;;;;;;;;;79.25;68.00;;;;;13.51;37.42;98192.13;6220508;28;127495;-59
2021/03/16 09:24:26;;;;;;;;;79.00;67.80;;;;;13.46;37.78;98184.78;6226638;28;127049;-59
2021/03/16 09:27:49;;;;;;;;;77.60;66.60;;;;;13.44;38.02;98192.34;6222677;28;124723;-59
2021/03/16 09:31:09;;;;;;;;;76.20;65.80;;;;;13.65;37.94;98191.47;6217844;28;126011;-59
2021/03/16 09:34:34;;;;;;;;;73.00;59.40;;;;;13.52;37.71;98150.47;6229838;28;125037;-59
2021/03/16 09:37:54;;;;;;;;;72.50;58.00;;;;;13.87;37.61;98194.91;6222902;28;124774;-59
2021/03/16 09:41:15;;;;;;;;;72.75;59.75;;;;;14.01;37.38;98199.88;6227378;28;124580;-59
2021/03/16 09:44:27;;;;;;;;;73.00;59.00;;;;;13.70;37.24;98128.38;6219585;28;126010;-59
2021/03/16 09:47:29;;;;;;;;;67.25;52.25;;;;;13.85;36.91;98150.97;6229233;28;126055;-59
2021/03/16 09:50:34;;;;;;;;;67.40;52.00;;;;;14.50;36.80;98204.00;6222951;28;126097;-58
2021/03/16 09:53:35;;;;;;;;;64.00;50.40;;;;;15.36;35.48;98204.28;6226445;28;124802;-59
2021/03/16 09:56:37;;;;;;;;;65.50;50.25;;;;;16.00;34.51;98207.34;6220019;28;124936;-59
2021/03/16 09:59:41;;;;;;;;;65.20;50.20;;;;;16.52;33.26;98202.66;6226183;28;126388;-60
2021/03/16 10:02:44;;;;;;;;;62.25;49.00;;;;;17.06;32.25;98198.09;6226209;27;126942;-59
2021/03/16 10:05:47;;;;;;;;;60.00;47.00;;;;;17.51;31.78;98199.72;6255615;27;124853;-59
2021/03/16 10:08:48;;;;;;;;;57.20;45.20;;;;;17.80;30.94;98175.28;6252588;27;126385;-59
2021/03/16 10:11:50;;;;;;;;;60.00;45.00;;;;;17.70;31.23;98199.88;6255010;27;126707;-59
2021/03/16 10:14:52;;;;;;;;;57.40;45.00;;;;;17.70;31.05;98183.53;6256095;27;126371;-60
2021/03/16 10:18:14;;;;;;;;;60.00;46.00;;;;;17.37;31.32;98149.69;6254259;27;124840;-59
2021/03/16 10:21:26;;;;;;;;;57.20;46.00;;;;;17.66;32.06;98210.56;6255843;27;126579;-59
2021/03/16 10:24:28;;;;;;;;;57.20;45.00;;;;;17.51;31.89;98210.63;6237876;27;125868;-59
2021/03/16 10:27:33;;;;;;;;;59.80;45.00;;;;;17.79;31.62;98200.13;6254332;27;124440;-59
2021/03/16 10:30:40;;;;;;;;;61.00;47.00;;;;;19.13;30.10;98194.59;6252888;27;123510;-59
2021/03/16 10:33:44;;;;;;;;;61.40;47.00;;;;;20.41;27.96;98195.88;6254132;27;126081;-59
2021/03/16 10:36:46;;;;;;;;;55.60;44.00;;;;;21.60;26.13;98190.09;6254392;27;126861;-60
2021/03/16 12:16:50;;;;;;;;;26.00;23.00;;;;;12.63;42.89;98212.25;6238350;27;124777;-56
2021/03/16 12:20:11;;;;;;;;;25.00;24.00;;;;;12.55;43.65;98208.13;6229018;27;124434;-59
2021/03/16 12:23:31;;;;;;;;;25.60;23.00;;;;;12.54;43.85;98206.47;6227016;27;125473;-58
2021/03/16 12:26:51;;;;;;;;;29.00;25.80;;;;;12.35;44.63;98208.66;6229175;27;126418;-60
2021/03/16 12:30:12;;;;;;;;;30.00;27.60;;;;;12.34;44.42;98203.50;6229412;27;126980;-60
2021/03/16 12:33:32;;;;;;;;;29.00;28.00;;;;;12.40;44.64;98213.31;6227857;27;124096;-58
2021/03/16 12:36:53;;;;;;;;;33.20;28.80;;;;;12.52;44.64;98219.41;6227247;27;124894;-59
2021/03/16 12:40:13;;;;;;;;;36.50;30.50;;;;;12.52;44.48;98208.59;6216531;27;125769;-59
2021/03/16 12:43:33;;;;;;;;;36.60;32.00;;;;;12.56;44.78;98215.13;6230644;27;126461;-59
2021/03/16 12:47:30;;;;;;;;;37.60;32.00;;;;;12.57;45.60;98216.78;6234947;27;97253;-58
2021/03/16 12:51:12;;;;;;;;;20.00;18.00;;;;;12.63;44.42;98220.38;6226854;27;126310;-59
2021/03/16 12:54:32;;;;;;;;;22.75;21.25;;;;;12.73;44.16;98218.63;6226416;27;126158;-58
2021/03/16 12:57:52;;;;;;;;;22.50;21.50;;;;;12.72;45.08;98226.97;6227851;27;126187;-59
2021/03/16 13:01:12;;;;;;;;;24.40;21.00;;;;;12.65;44.46;98224.47;6236133;27;124888;-59
2021/03/16 13:04:33;;;;;;;;;25.67;21.00;;;;;12.54;44.63;98226.22;6227470;27;125733;-59
2021/03/16 13:07:53;;;;;;;;;24.40;21.60;;;;;12.46;44.54;98226.63;6226411;27;125421;-60
2021/03/16 13:11:13;;;;;;;;;23.00;22.00;;;;;12.44;45.07;98225.25;6227373;27;126211;-60
2021/03/16 13:14:33;;;;;;;;;23.40;22.80;;;;;12.40;44.57;98219.53;6230814;27;124124;-60
2021/03/16 13:17:53;;;;;;;;;22.60;21.00;;;;;12.42;44.33;98216.56;6233038;27;126091;-60
2021/03/16 13:21:13;;;;;;;;;23.20;21.60;;;;;12.30;45.17;98216.69;6242570;27;126123;-60
2021/03/16 13:24:34;;;;;;;;;23.25;20.75;;;;;12.11;45.71;98221.56;6253597;27;126163;-60
2021/03/16 13:27:54;;;;;;;;;24.00;20.75;;;;;11.96;46.32;98220.50;6250327;27;125928;-60
2021/03/16 13:31:14;;;;;;;;;20.80;18.20;;;;;11.86;46.43;98215.78;6252448;27;125755;-60
2021/03/16 13:34:36;;;;;;;;;22.20;21.20;;;;;11.82;46.51;98205.72;6250774;27;126594;-56
2021/03/16 13:37:58;;;;;;;;;20.40;18.20;;;;;11.91;46.64;98210.44;6219622;27;127071;-59
2021/03/16 13:41:19;;;;;;;;;20.80;19.00;;;;;11.99;46.70;98217.31;6242316;27;125756;-60
2021/03/16 13:44:39;;;;;;;;;22.00;20.00;;;;;12.08;46.13;98207.72;6247938;27;125861;-60
2021/03/16 13:47:59;;;;;;;;;21.00;18.00;;;;;12.18;46.28;98215.16;6244315;27;124838;-60
2021/03/16 13:51:19;;;;;;;;;21.80;18.20;;;;;12.33;46.34;98221.59;6246341;27;126806;-60
2021/03/16 13:54:39;;;;;;;;;19.00;17.80;;;;;12.47;45.47;98216.66;6255705;27;125735;-60
2021/03/16 13:57:59;;;;;;;;;20.40;18.40;;;;;12.34;45.03;98196.22;6255980;27;124978;-60
2021/03/16 14:01:19;;;;;;;;;20.50;17.50;;;;;12.87;44.69;98225.28;6255211;27;124761;-59
2021/03/16 14:04:39;;;;;;;;;22.20;20.40;;;;;13.23;43.56;98214.91;6255786;27;125996;-60
2021/03/16 14:08:00;;;;;;;;;19.00;18.00;;;;;13.63;42.88;98228.84;6240883;27;126616;-60
2021/03/16 14:11:35;;;;;;;;;21.00;18.40;;;;;14.10;42.59;98228.94;6255939;27;127540;-58
2021/03/16 14:14:59;;;;;;;;;19.80;17.80;;;;;13.62;41.83;98090.97;6254491;27;126582;-58
2021/03/16 14:18:19;;;;;;;;;20.25;17.25;;;;;14.82;40.96;98222.03;6255705;27;127058;-57
2021/03/16 14:21:39;;;;;;;;;22.40;19.60;;;;;15.23;39.87;98225.72;6254748;27;126089;-58
2021/03/16 14:24:59;;;;;;;;;19.00;18.00;;;;;15.42;38.92;98227.66;6253543;27;127100;-59
2021/03/16 14:28:19;;;;;;;;;19.00;19.00;;;;;15.59;38.89;98232.88;6253698;27;124652;-58
2021/03/16 14:31:39;;;;;;;;;25.60;22.60;;;;;15.56;38.40;98223.38;6254511;27;126855;-57
2021/03/16 14:35:00;;;;;;;;;25.00;23.00;;;;;15.38;38.49;98188.56;6252192;27;126954;-58
2021/03/16 14:38:20;;;;;;;;;22.00;20.00;;;;;15.26;38.70;98127.41;6251828;27;126171;-58
2021/03/16 14:41:40;;;;;;;;;25.00;23.00;;;;;16.00;37.58;98218.22;6252512;27;126115;-58
2021/03/16 14:45:00;;;;;;;;;23.00;21.00;;;;;16.11;37.62;98219.03;6251257;27;124900;-59
2021/03/16 14:48:20;;;;;;;;;21.00;21.00;;;;;15.99;37.52;98222.03;6253621;27;125967;-59
2021/03/16 14:51:41;;;;;;;;;22.00;20.20;;;;;15.83;37.88;98228.53;6253847;27;126396;-59
2021/03/16 14:55:01;;;;;;;;;22.00;21.80;;;;;15.85;38.07;98228.28;6252103;27;126195;-60
2021/03/16 14:58:21;;;;;;;;;23.40;22.20;;;;;15.68;38.28;98230.47;6252614;27;125859;-59
2021/03/16 15:01:41;;;;;;;;;25.00;23.00;;;;;15.23;39.07;98248.25;6253319;27;127243;-59
2021/03/16 15:05:03;;;;;;;;;26.00;24.20;;;;;14.62;39.16;98180.19;6254247;27;126735;-60
2021/03/16 15:08:24;;;;;;;;;27.40;26.00;;;;;14.29;39.82;98180.53;6255162;27;125778;-61
2021/03/16 15:11:43;;;;;;;;;32.80;28.80;;;;;14.13;40.52;98211.31;6240055;27;126789;-61
2021/03/16 15:15:06;;;;;;;;;27.00;26.00;;;;;14.00;40.98;98237.00;6254302;27;126844;-60
2021/03/16 15:18:26;;;;;;;;;29.00;26.75;;;;;13.83;41.37;98239.81;6254575;27;126615;-60
2021/03/16 15:21:47;;;;;;;;;27.20;26.20;;;;;13.67;41.79;98242.66;6255598;27;126040;-57
2021/03/16 15:25:07;;;;;;;;;30.60;27.40;;;;;13.51;42.29;98240.88;6254390;27;125363;-60
2021/03/16 15:28:28;;;;;;;;;34.60;30.00;;;;;13.46;42.50;98241.66;6253924;27;125953;-61
2021/03/16 15:31:49;;;;;;;;;33.67;30.00;;;;;13.47;42.39;98243.28;6250922;27;126639;-60
2021/03/16 15:35:11;;;;;;;;;33.00;30.00;;;;;13.45;42.35;98248.97;6252934;27;127214;-60
2021/03/16 15:38:31;;;;;;;;;30.00;29.50;;;;;13.48;42.67;98253.06;6252820;27;124656;-60
2021/03/16 15:41:51;;;;;;;;;31.40;30.00;;;;;13.42;42.40;98257.59;6254181;27;125264;-60
2021/03/16 15:45:11;;;;;;;;;32.75;28.00;;;;;13.16;42.31;98219.69;6254309;27;126110;-60
2021/03/16 15:48:31;;;;;;;;;30.40;28.80;;;;;13.31;42.29;98250.44;6252768;27;123901;-57
2021/03/16 15:51:51;;;;;;;;;28.00;25.20;;;;;13.25;42.17;98247.91;6253556;27;123944;-57
2021/03/16 15:55:12;;;;;;;;;24.00;23.00;;;;;13.14;42.33;98257.03;6252556;27;124583;-60
2021/03/16 15:58:32;;;;;;;;;27.50;25.00;;;;;13.06;42.42;98265.53;6251024;27;126440;-60
2021/03/16 16:01:53;;;;;;;;;22.60;22.00;;;;;12.97;42.62;98263.28;6237873;27;124600;-60
2021/03/16 16:05:13;;;;;;;;;28.00;25.25;;;;;12.59;42.50;98209.25;6252720;27;125046;-59
2021/03/16 16:08:44;;;;;;;;;26.00;25.00;;;;;12.75;43.14;98267.88;6249953;27;124980;-58
2021/03/16 16:12:04;;;;;;;;;26.50;24.75;;;;;12.67;43.26;98279.13;6251676;27;124543;-60
2021/03/16 16:15:25;;;;;;;;;31.00;27.00;;;;;12.56;43.68;98278.16;6250915;27;123803;-60
2021/03/16 16:18:45;;;;;;;;;33.80;30.00;;;;;12.48;43.94;98286.69;6253143;27;127578;-60
2021/03/16 16:22:06;;;;;;;;;29.50;28.25;;;;;12.43;44.09;98281.22;6253027;27;124704;-58
2021/03/16 16:25:26;;;;;;;;;31.80;30.00;;;;;12.40;44.47;98280.91;6252665;27;124894;-58
2021/03/16 16:28:46;;;;;;;;;32.40;30.00;;;;;12.36;44.62;98291.41;6251361;27;124973;-58
2021/03/16 16:32:07;;;;;;;;;35.60;32.00;;;;;12.17;45.33;98294.59;6251681;27;126094;-60
2021/03/16 16:35:28;;;;;;;;;35.60;31.60;;;;;12.20;45.01;98289.53;6252771;27;124871;-61
2021/03/16 16:38:57;;;;;;;;;37.80;33.80;;;;;12.10;45.30;98295.56;6252652;27;126122;-60
2021/03/16 16:42:17;;;;;;;;;39.60;32.60;;;;;11.81;45.42;98264.31;6236145;27;124696;-61